Date,TemperatureHighF,TemperatureAvgF,TemperatureLowF,DewpointHighF,DewpointAvgF,DewpointLowF,HumidityHigh,HumidityAvg,HumidityLow,PressureMaxIn,PressureMinIn,WindSpeedMaxMPH,WindSpeedAvgMPH,GustSpeedMaxMPH,PrecipitationSumIn
2013-1-1,42.3,31.4,26.1,40.1,29.7,25.1,97,93,77,30.37,30.19,6,0,6,0.00
2013-1-2,46.3,33.8,28.3,38.6,28.7,25.5,94,82,56,30.19,29.33,12,2,12,0.00
2013-1-3,45.4,35.3,28.1,31.8,26.6,23.0,88,71,49,30.01,28.86,16,3,16,0.00
2013-1-4,48.2,40.9,34.7,46.2,38.9,31.5,94,93,88,30.16,29.10,4,1,4,0.00
2013-1-5,41.9,39.1,37.1,38.2,35.4,33.2,94,87,81,30.06,29.02,4,1,4,0.00
2013-1-6,43.9,38.8,36.7,41.8,37.0,34.5,95,93,91,30.06,29.30,4,1,4,0.00
2013-1-7,48.1,44.5,38.7,47.1,42.9,37.1,97,94,90,30.04,29.69,11,3,11,0.00
2013-1-8,52.4,46.1,40.5,48.8,43.9,39.2,97,92,83,30.04,29.16,14,2,14,0.00
2013-1-9,49.0,45.2,34.0,46.9,43.6,32.7,95,94,93,29.64,28.98,5,1,5,0.00
2013-1-10,57.1,34.5,30.8,56.2,33.1,29.5,97,95,90,29.96,29.31,2,0,3,0.00
2013-1-11,40.7,29.8,25.4,37.8,28.2,23.9,97,94,84,30.15,29.93,4,0,4,0.00
2013-1-12,39.4,27.6,23.0,35.1,25.2,21.1,95,91,76,30.25,30.12,6,0,6,0.00
2013-1-13,37.3,26.9,20.5,33.9,24.5,18.6,94,91,80,30.31,30.23,4,0,4,0.00
2013-1-14,36.0,30.4,28.4,32.4,28.4,26.6,93,92,86,30.33,30.28,3,0,3,0.00
2013-1-15,44.1,39.2,32.0,36.6,34.4,30.1,92,83,75,30.50,30.38,2,1,2,0.00
2013-2-17,56.2,43.1,39.6,51.3,36.8,35.4,88,78,70,30.04,29.94,5,0,5,0.00
2013-2-18,46.6,40.1,36.0,39.5,35.7,32.2,91,85,72,29.94,29.60,6,1,6,0.00
2013-2-19,52.9,40.8,33.3,43.5,34.3,29.5,90,79,60,29.84,29.55,9,1,9,0.00
2013-2-20,43.9,38.1,32.8,38.3,34.3,29.9,91,86,75,29.87,29.82,8,0,8,0.00
2013-2-21,42.5,40.4,36.7,39.2,37.3,34.0,93,89,85,29.92,29.84,11,2,11,0.00
2013-2-22,43.9,40.9,38.0,41.2,37.5,33.8,92,88,82,29.90,29.57,15,3,15,0.00
2013-2-23,48.2,41.4,38.0,40.0,36.5,34.3,88,83,69,30.21,29.75,8,1,8,0.00
2013-2-24,46.4,42.3,39.1,39.0,36.6,34.4,85,80,72,30.22,29.79,10,2,10,0.00
2013-2-25,48.8,42.5,40.0,38.6,35.9,31.3,88,78,53,30.15,29.74,19,3,19,0.00
2013-2-26,48.2,42.8,38.9,36.3,33.9,31.1,82,71,53,30.18,30.03,8,1,8,0.00
2013-2-27,49.7,43.6,37.8,42.1,39.1,34.8,90,84,73,30.14,30.04,7,1,7,0.00
2013-2-28,50.6,46.0,42.1,47.7,43.2,39.3,91,90,89,30.17,30.02,6,1,6,0.00
2013-3-1,58.0,53.5,48.6,50.0,48.1,43.8,90,82,73,30.21,30.13,11,2,11,0.00
2013-3-2,56.7,48.1,38.5,47.4,42.4,34.8,87,81,69,30.13,29.91,10,2,10,0.00
2013-3-3,49.9,40.5,31.9,41.7,34.0,27.8,88,78,60,30.13,30.03,8,1,8,0.00
2013-3-4,53.5,40.8,29.0,39.0,28.6,23.5,88,65,38,30.12,29.75,12,2,12,0.00
2013-3-5,52.0,44.8,40.5,37.6,32.5,24.0,78,62,45,29.75,29.55,11,1,11,0.00
2013-3-6,45.7,41.7,38.7,39.2,36.2,32.9,86,81,77,29.74,29.40,8,1,8,0.00
2013-3-7,51.1,43.4,35.6,42.8,38.1,31.2,87,82,70,29.92,29.74,5,0,5,0.00
2013-3-8,52.7,41.5,31.1,43.0,35.0,27.5,87,78,64,30.07,29.90,9,1,9,0.00
2013-3-9,54.4,42.5,32.0,44.0,34.1,27.9,86,73,50,30.33,30.07,8,1,8,0.00
2013-3-10,45.7,41.1,34.6,39.9,35.6,29.3,84,81,78,30.33,30.25,4,0,4,0.00
2013-3-11,52.4,45.4,38.5,43.7,39.7,34.1,86,81,71,30.28,30.01,4,0,4,0.00
2013-3-12,53.3,50.9,46.3,46.3,44.8,41.4,84,80,71,30.01,29.92,12,2,12,0.00
2013-3-13,53.5,51.0,49.3,47.5,45.4,44.0,83,81,78,30.05,29.93,7,1,7,0.00
2013-3-14,54.4,50.3,47.7,48.0,44.3,41.8,83,80,73,30.01,29.89,6,1,6,0.00
2013-3-15,59.2,52.4,47.9,48.9,45.0,41.7,82,76,68,30.06,29.97,10,1,10,0.00
2013-3-16,52.7,46.5,40.0,42.0,39.0,32.5,78,75,64,29.98,29.72,16,2,16,0.00
2013-3-17,48.6,41.8,38.7,36.6,33.1,31.3,77,71,60,30.02,29.80,15,2,15,0.00
2013-3-18,51.3,42.9,35.5,38.6,33.0,27.6,75,69,48,30.04,29.94,12,2,12,0.00
2013-3-19,55.6,42.3,32.8,38.6,31.3,26.6,80,67,34,30.03,29.42,12,2,12,0.00
2013-3-20,49.9,44.8,39.1,42.3,37.2,30.8,80,75,67,29.83,29.22,20,4,20,0.00
2013-3-21,47.2,38.7,34.2,35.8,31.1,28.3,79,74,60,30.02,29.83,12,2,12,0.00
2013-3-22,34.2,33.9,33.5,28.4,28.2,27.9,80,80,79,30.03,30.01,3,0,3,0.00
2013-3-26,50.9,50.2,48.6,38.2,37.6,36.5,64,62,61,29.81,29.79,5,1,5,0.00
2013-3-27,57.1,49.2,43.7,43.5,38.8,35.1,74,67,58,29.80,29.74,4,0,4,0.00
2013-3-28,61.6,50.3,42.5,49.3,40.9,34.7,76,70,59,29.95,29.79,7,1,7,0.00
2013-3-29,64.1,53.1,42.3,50.6,41.9,35.1,76,66,50,30.04,29.95,11,2,11,0.00
2013-3-30,67.5,53.8,39.2,45.7,40.1,32.0,75,61,42,30.04,29.85,11,2,11,0.00
2013-3-31,70.9,56.1,40.9,50.2,41.9,32.7,74,60,44,29.85,29.69,8,1,8,0.00
2013-4-1,61.9,51.9,43.7,48.3,41.3,34.7,75,67,59,29.90,29.44,8,1,8,0.00
2013-4-2,54.2,51.0,48.6,43.2,40.9,39.0,72,68,66,29.94,28.95,4,0,4,0.00
2013-4-3,63.2,53.7,43.0,49.3,42.1,35.0,74,65,54,29.90,28.98,6,1,6,0.00
2013-4-4,57.4,52.4,48.6,47.4,42.2,38.1,71,68,64,29.68,28.70,8,1,8,0.00
2013-4-5,63.4,52.4,47.9,51.4,41.8,37.8,71,67,63,29.91,28.59,10,2,10,0.00
2013-4-6,50.9,47.6,43.9,39.6,37.2,34.0,69,67,64,29.98,29.75,13,2,13,0.00
2013-4-7,44.6,42.5,40.7,34.3,32.6,30.5,69,68,67,29.92,29.51,10,1,10,0.00
2013-4-8,53.1,46.5,41.4,39.9,35.2,31.2,68,65,60,30.31,29.92,4,1,4,0.00
2013-4-9,54.7,48.8,42.3,41.5,36.4,31.3,65,62,60,30.37,30.22,6,1,6,0.00
2013-4-10,64.6,52.1,47.3,46.4,38.2,33.8,61,59,54,30.29,29.99,13,2,13,0.00
2013-4-11,51.5,46.7,42.5,36.6,32.7,29.0,60,58,56,30.33,30.21,9,1,9,0.00
2013-4-12,47.3,43.4,39.2,34.4,30.0,26.8,62,59,57,30.21,29.74,13,1,13,0.00
2013-4-13,48.2,41.6,38.0,34.9,28.6,25.8,63,60,57,30.03,29.80,13,2,13,0.00
2013-4-14,52.6,43.8,37.4,39.7,30.6,24.8,63,59,56,30.05,29.95,10,1,10,0.00
2013-4-15,56.0,44.7,37.8,40.4,30.7,24.3,61,58,54,30.20,29.97,11,1,11,0.00
2013-4-16,53.1,43.6,34.2,39.2,29.9,21.3,61,58,53,30.42,30.20,8,1,8,0.00
2013-4-17,60.5,48.2,35.5,42.8,32.6,22.6,62,55,36,30.48,30.42,8,1,8,0.00
2013-4-18,51.5,47.0,41.9,36.6,30.5,27.0,61,53,47,30.48,30.26,8,1,8,0.00
2013-4-19,55.1,50.9,48.4,33.9,30.4,27.2,47,45,43,30.26,30.09,9,1,9,0.00
2013-4-20,53.8,49.0,46.6,33.5,28.9,26.0,50,46,42,30.31,30.24,13,1,13,0.00
2013-4-21,52.4,47.4,40.3,33.0,27.7,21.5,50,46,41,30.39,30.25,8,1,8,0.00
2013-4-22,60.3,48.0,35.6,42.8,28.4,17.0,63,47,32,30.53,30.39,13,2,13,0.00
2013-4-23,63.4,49.5,35.6,44.9,30.9,18.7,63,50,32,30.44,30.26,11,2,11,0.00
2013-4-24,68.4,54.0,38.0,45.7,32.1,19.3,60,45,26,30.34,30.09,9,1,9,0.00
2013-4-25,70.4,56.7,40.7,45.2,35.5,22.1,58,46,31,30.19,30.06,7,1,7,0.00
2013-4-26,68.8,57.1,44.1,49.6,36.7,21.6,55,47,37,30.29,30.19,7,1,7,0.00
2013-4-27,55.6,52.5,51.1,39.6,32.3,23.9,58,47,34,30.27,30.21,9,1,9,0.00
2013-4-28,61.6,52.9,47.7,44.7,31.8,20.7,57,45,34,30.24,30.00,13,2,13,0.00
2013-4-29,51.7,46.2,40.9,36.6,22.8,16.9,60,40,30,30.20,29.95,14,1,14,0.00
2013-4-30,54.0,45.3,38.2,37.7,26.4,14.9,61,48,38,30.47,30.20,10,1,10,0.00
2013-5-1,63.9,49.8,34.0,38.2,27.8,13.7,58,43,27,30.60,30.47,10,1,10,0.00
2013-5-2,71.8,55.4,40.3,46.8,35.5,18.0,57,47,37,30.56,30.40,11,2,11,0.00
2013-5-3,69.8,58.0,45.2,48.2,38.3,19.5,56,48,36,30.42,30.26,10,2,10,0.00
2013-5-4,79.6,55.3,45.5,44.5,31.3,16.9,55,40,26,30.27,29.88,8,1,8,0.00
2013-5-5,82.3,66.2,47.5,54.5,40.0,21.5,56,40,25,29.88,29.67,12,2,12,0.00
2013-5-6,85.3,68.5,50.0,52.6,41.8,28.5,54,40,21,29.74,29.65,10,2,10,0.00
2013-5-7,70.2,59.7,51.7,52.2,37.4,21.8,55,44,30,29.90,29.72,6,1,6,0.00
2013-5-8,65.5,56.3,49.7,46.3,28.6,17.2,50,35,27,30.02,29.90,6,1,6,0.00
2013-5-9,70.2,58.3,48.6,51.8,29.0,12.7,52,34,21,30.10,30.00,8,1,8,0.00
2013-5-10,79.2,64.8,49.7,57.2,35.6,8.6,53,35,17,30.08,30.00,9,1,9,0.00
2013-5-11,79.9,67.7,54.9,56.3,41.4,20.1,53,39,24,30.07,29.89,8,1,8,0.00
2013-5-12,71.6,63.9,58.7,52.2,24.7,2.3,51,25,10,30.00,29.90,8,1,8,0.00
2013-5-13,67.7,56.8,46.3,41.4,12.5,0.4,42,19,6,30.07,29.81,13,2,13,0.00
2013-5-14,62.6,53.3,44.1,45.2,25.3,0.0,54,36,15,30.10,29.99,7,1,7,0.00
2013-5-15,68.2,56.1,44.5,49.0,26.0,-0.8,53,35,11,30.00,29.90,7,1,7,0.00
2013-5-16,72.2,59.0,52.4,51.8,22.8,-2.6,52,29,10,29.90,29.75,10,1,10,0.00
2013-5-17,61.7,56.1,52.6,43.9,14.5,-2.3,53,22,7,29.95,29.84,7,1,7,0.00
2013-5-18,62.3,55.0,51.3,39.0,13.9,-3.5,46,22,8,30.15,29.95,6,0,6,0.00
2013-5-19,65.0,56.7,50.4,45.4,16.8,-3.1,50,24,5,30.28,30.15,7,1,7,0.00
2013-5-20,66.4,56.4,47.9,48.2,19.3,-5.7,53,27,7,30.22,29.77,7,1,7,0.00
2013-5-21,60.8,52.1,46.6,42.9,16.5,-7.2,53,28,6,29.78,29.66,12,2,12,0.00
2013-5-22,52.6,47.2,42.8,14.2,-2.6,-9.2,22,13,7,29.81,29.73,5,1,5,0.00
2013-5-23,61.6,50.8,45.5,41.8,4.1,-7.9,53,15,5,29.89,29.80,7,1,7,0.00
2013-5-24,62.1,53.4,47.5,43.9,10.6,-6.3,52,19,2,29.94,29.84,7,1,7,0.00
2013-5-25,63.9,55.3,49.3,46.2,18.6,-5.0,55,26,1,29.93,29.84,6,1,6,0.00
2013-5-26,65.5,56.0,49.9,46.3,8.3,-4.8,50,13,1,29.87,29.81,7,1,7,0.00
2013-5-27,59.9,55.3,49.3,3.2,-0.3,-5.0,8,1,1,29.85,29.59,6,1,6,0.00
2013-5-28,61.6,55.5,51.7,26.5,1.7,-3.2,27,5,1,29.77,29.64,6,1,6,0.00
2013-5-29,61.2,54.7,49.3,36.2,6.1,-5.0,40,11,1,29.86,29.56,15,1,15,0.00
2013-5-30,61.7,54.4,48.2,42.8,10.9,-5.8,50,17,1,30.13,29.86,13,1,13,0.00
2013-5-31,66.1,56.7,49.7,46.7,19.3,-4.8,54,25,1,30.21,30.11,6,1,6,0.00
2013-6-1,71.6,60.6,49.1,51.0,26.0,-5.1,51,29,1,30.12,29.92,8,1,8,0.00
2013-6-2,68.8,60.2,53.6,49.0,25.6,-1.6,50,29,1,29.97,29.93,8,1,8,0.00
2013-6-3,71.3,59.5,47.9,51.8,19.2,-6.0,51,21,1,30.00,29.94,7,1,7,0.00
2013-6-4,79.2,65.2,49.7,57.8,28.0,-4.8,50,26,1,30.01,29.91,8,1,8,0.00
2013-6-5,78.7,66.8,52.9,57.2,33.7,-2.1,50,32,1,29.97,29.91,8,2,9,0.00
2013-6-6,79.0,66.5,52.7,57.8,30.2,-2.5,52,28,1,29.94,29.88,9,1,9,0.00
2013-6-7,71.5,61.3,54.2,50.8,27.0,-1.2,53,31,1,30.01,29.91,8,1,8,0.00
2013-6-8,67.7,59.7,53.5,45.9,17.2,-1.8,48,21,1,30.05,29.96,7,1,7,0.00
2013-6-9,68.8,61.4,53.8,49.2,36.2,2.0,52,40,12,29.98,29.88,7,2,7,0.00
2013-6-10,68.6,59.0,48.6,49.2,30.4,-5.5,52,36,5,29.90,29.75,8,1,8,0.00
2013-6-11,66.8,57.8,49.9,47.4,28.4,-4.6,53,36,6,29.98,29.82,11,2,11,0.00
2013-6-12,52.7,51.9,50.9,23.1,2.4,-3.6,32,14,7,29.99,29.98,3,0,3,0.00